Raymore, Missouri
Current Conditions -  °F | °C
As of 12:53 PM on Thursday 30 Oct 2014 (Local Time) from KLXT Reporting Station
Clear Clear  
Wind Chill: 65°   Ceiling: Unl
Heat Index: 65°   Visibility: 10mi
Dew Point: 41°   Wind: 14mph
Humidity: 42%   Direction: 310°NW
Pressure: 30.01"   Gusts: NA
Location:  38.8°N, 94.46°W
Report Text: KLXT 301753Z AUTO 31012KT 10SM CLR 18/05 A3001 RMK AO2 SLP161 T01830050 10183 20094 58006
Loading
Personal Weather Stations






























Interactive Weather Map
Tropical Storm Tracking
New forecast layout! Learn more

10-Day Weather Forecast

Advertisements
Track Severe Weather on mobile